Nearby METAR Reports

 

EIDW - Dublin Airport, Ireland
Distance from station: ENE 79km
Updated: 19/02/2019 12:00
Mostly cloudy
Mostly cloudy
 Wind from SSW
Wind: SSW 24 km/h
Temperature: 8°C
Wind Chill: 4°C
Dew Point: 4°C
Humidity: 76%
Barometer: 1012 hPa
Clouds: Mostly cloudy
Visibility: 10 km
Cloud details: Few Clouds 549 m
Mostly cloudy 945 m
Mostly cloudy 1280 m
2019/02/19 12:00 EIDW 191200Z 20013KT 160V230 9999 FEW018 BKN031 BKN042 08/04 Q1012 NOSIG
EIME - Casement (mil), Ireland
Distance from station: ENE 62km
Updated: 19/02/2019 12:00
Mostly cloudy
Mostly cloudy
 Wind from SSW
Wind: SSW 24 km/h
Temperature: 8°C
Wind Chill: 4°C
Dew Point: 5°C
Humidity: 82%
Barometer: 1012 hPa
Clouds: Mostly cloudy
Visibility: 10 km
Cloud details: Few Clouds 579 m
Mostly cloudy 792 m
Mostly cloudy 3048 m
2019/02/19 12:00 EIME 191200Z 20013KT 9999 FEW019 BKN026 BKN100 08/05 Q1012
EIWF - Waterford Arpt, Ireland
Distance from station: S 111km
Updated: 19/02/2019 12:00
Mostly cloudy
Mostly cloudy
 Wind from SW
Wind: SW 33 km/h
Temperature: 8°C
Wind Chill: 3°C
Dew Point: 7°C
Humidity: 93%
Barometer: 1013 hPa
Clouds: Mostly cloudy
Visibility: 10 km
Cloud details: Few Clouds 975 m
Mostly cloudy 1280 m
2019/02/19 12:00 EIWF 191200Z 22018KT 9999 FEW032 BKN042 08/07 Q1013 R21/1/////
 
EINN - Shannon Airport, Ireland
Distance from station: WSW 117km
Updated: 19/02/2019 12:00
Light rain, Mostly cloudy
Light rain, Mostly cloudy
 Wind from SSE
Wind: SSE 26 km/h
Temperature: 9°C
Wind Chill: 6°C
Dew Point: 7°C
Humidity: 87%
Barometer: 1008 hPa
Summary: Light rain
Clouds: Mostly cloudy
Visibility: 10 km
Cloud details: Few Clouds 457 m
Mostly cloudy 1524 m
2019/02/19 12:00 EINN 191200Z 16014KT 9999 -RA FEW015 BKN050 09/07 Q1008 NOSIG
EIKN - Connaught Apt, Ireland
Distance from station: NW 127km
Updated: 19/02/2019 12:00
Light rain, Overcast
Light rain, Overcast
 Wind from SSE
Wind: SSE 26 km/h
Temperature: 6°C
Wind Chill: 2°C
Dew Point: 5°C
Humidity: 93%
Barometer: 1006 hPa
Summary: Light rain
Clouds: Overcast
Visibility: 10 km
Cloud details: Mostly cloudy 122 m
Overcast 762 m
2019/02/19 12:00 EIKN 191200Z 15014KT 9999 -RA BKN004 OVC025 06/05 Q1006 BECMG 4000
EISG - Sligo Arpt, Ireland
Distance from station: NNW 148km
Updated: 19/02/2019 12:00
Light rain, Overcast
Light rain, Overcast
 Wind from SSE
Wind: SSE 28 km/h, Gust: 46 km/h
Temperature: 7°C
Wind Chill: 3°C
Dew Point: 5°C
Humidity: 87%
Barometer: 1007 hPa
Summary: Light rain
Clouds: Overcast
Visibility: 7 km
Cloud details: Partly cloudy 549 m
Overcast 701 m
2019/02/19 12:00 EISG 191200Z 15015G25KT 110V170 7000 -RA SCT018 OVC023 07/05 Q1007
 
EICK - Cork Arpt/Corcai, Ireland
Distance from station: SSW 165km
Updated: 19/02/2019 12:00
Light rain, Mostly cloudy
Light rain, Mostly cloudy
 Wind from S
Wind: S 31 km/h
Temperature: 8°C
Wind Chill: 3°C
Dew Point: 7°C
Humidity: 93%
Barometer: 1011 hPa
Summary: Light rain
Clouds: Mostly cloudy
Visibility: 10 km
Cloud details: Mostly cloudy 244 m
Mostly cloudy 488 m
2019/02/19 12:00 EICK 191200Z 19017KT 9999 -RA BKN008 BKN016 08/07 Q1011 BECMG 4000 BKN005
EGAA - Belfast/Aldergro, United Kingdom
Distance from station: NNE 179km
Updated: 19/02/2019 12:20
Few Clouds
Few Clouds
 Wind from S
Wind: S 17 km/h
Temperature: 7°C
Wind Chill: 4°C
Dew Point: 4°C
Humidity: 81%
Barometer: 1011 hPa
Clouds: Few Clouds
Visibility: 10 km
Cloud details: Few Clouds 1219 m
2019/02/19 12:20 EGAA 191220Z 19009KT 150V220 9999 FEW040 07/04 Q1011
EIKY - Kerry Arpt, Ireland
Distance from station: SW 182km
Updated: 19/02/2019 12:00
Mostly cloudy
Mostly cloudy
 Wind from S
Wind: S 31 km/h
Temperature: 10°C
Wind Chill: 7°C
Dew Point: 8°C
Humidity: 88%
Barometer: 1008 hPa
Clouds: Mostly cloudy
Visibility: 10 km
Cloud details: Mostly cloudy 732 m
2019/02/19 12:00 EIKY 191200Z 19017KT 9999 BKN024 10/08 Q1008
 
EGAC - Belfast Harbour, United Kingdom
Distance from station: NNE 188km
Updated: 19/02/2019 12:20
Mostly cloudy
Mostly cloudy
 Wind from S
Wind: S 20 km/h
Temperature: 9°C
Wind Chill: 6°C
Dew Point: 4°C
Humidity: 71%
Barometer: 1011 hPa
Clouds: Mostly cloudy
Visibility: 10 km
Cloud details: Mostly cloudy 1402 m
2019/02/19 12:20 EGAC 191220Z AUTO 19011KT 9999 BKN046/// 09/04 Q1011
EGOV - Valley Raf, United Kingdom
Distance from station: E 188km
Updated: 19/02/2019 11:50
Mostly cloudy
Mostly cloudy
 Wind from SSW
Wind: SSW 33 km/h
Temperature: 10°C
Wind Chill: 6°C
Dew Point: 6°C
Humidity: 76%
Barometer: 1015 hPa
Clouds: Mostly cloudy
Visibility: 10 km
Cloud details: Few Clouds 457 m
Mostly cloudy 1372 m
Mostly cloudy 3962 m
2019/02/19 11:50 EGOV 191150Z 20018KT 9999 FEW015 BKN045 BKN130 10/06 Q1015 BLU NOSIG
EGNS - Isle Of Man/Rona, United Kingdom
Distance from station: ENE 207km
Updated: 19/02/2019 12:20
Mostly cloudy
Mostly cloudy
 Wind from SSW
Wind: SSW 31 km/h
Temperature: 9°C
Wind Chill: 5°C
Dew Point: 5°C
Humidity: 76%
Barometer: 1013 hPa
Clouds: Mostly cloudy
Visibility: 10 km
Cloud details: Few Clouds 549 m
Mostly cloudy 1463 m
2019/02/19 12:20 EGNS 191220Z 21017KT 9999 FEW018 BKN048 09/05 Q1013 NOSIG